Ana Sayfa
METAR-TAF:

METAR-TAF

Havaalanları :

Palenque, Meksika

Enlem: 17-32-06N, Boylam: 92-00-54W, yükseklik: 60 m

Güncel hava durumu gözlemi

Rapor saat 00:48 UTC de 11 saat ve 15 dakika önce yapıldı.
Rüzgar doğudan 15 kt
Sıcaklık 35°C
Nem 42%
Basınç 1004 hPa
Görüş mesafesi: 9.7 km
Açık gökyüzü

METAR: MMPQ 170048Z 09015KT 6SM SKC 35/20 A2965 RMK HZY MSGTX MMMX

Saat: 07:03 (12:03 UTC)

Tahmin

Rapor saat 05:43 UTC de 6 saat ve 20 dakika önce yapıldı.
Ayın 17'si saat 06 UTC'den ayın 18'si saat 06 UTC'ye kadar geçerli Tahmin
Rüzgar doğu/güneydoğudan 5 kt
Görüş mesafesi: 9.7 km
20000 ft yükseklikte parçalı bulutlu
Toz Pusu
Ayın 17'si saat 1800 UTC'den
Rüzgar doğu/kuzeydoğudan 12 kt
Görüş mesafesi: 9.7 km
Açık gökyüzü
Toz Pusu
Ayın 18'si saat 0300 UTC'den
Rüzgar kuzeydoğudan 5 kt
Görüş mesafesi: 9.7 km
20000 ft yükseklikte parçalı bulutlu
Toz Pusu,

TAF: MMPQ 170543Z 1706/1806 12005KT 6SM HZ SCT200 FM171800 07012KT 6SM HZ SKC FM180300 04005KT 6SM HZ SCT200

4.000'den fazla havaalanı için hava durumu gözlemleri ve tahminleri (METAR ve TAF raporları).

Kullanılabilir istasyonlar harita üzerinde sarı ve kırmızı noktalarla gösterilir.

İstasyonun adını görmek için fareyi noktanın üzerinde gezdirin.

Sonrasında hava gözlem ve tahminlerini görmek için tıklayın.

Haritayı değiştirmek için: yaklaştırmak için siyah artı işaretli yeşil düğmeye ve uzaklaştırmak için de eksi işaretli düğmeye hızla tıklayın; bitişik haritalar için yeşil okları kullanın.


METAR-TAF: